createdAt,value
2023-04-25T00:00:03.580Z,970.18
2023-04-25T00:01:02.991Z,970.06
2023-04-25T00:02:03.775Z,970.12
2023-04-25T00:03:03.703Z,970.09
2023-04-25T00:04:03.517Z,970.04
2023-04-25T00:05:04.259Z,970.12
2023-04-25T00:06:03.948Z,970.09
2023-04-25T00:07:03.816Z,970.12
2023-04-25T00:08:03.695Z,970.15
2023-04-25T00:09:03.323Z,970.04
2023-04-25T00:10:03.454Z,970.21
2023-04-25T00:11:03.354Z,970.27
2023-04-25T00:12:03.776Z,970.07
2023-04-25T00:14:03.866Z,970.24
2023-04-25T00:16:04.091Z,970.13
2023-04-25T00:18:03.150Z,970.33
2023-04-25T00:19:03.652Z,970.27
2023-04-25T00:21:03.231Z,970.07
2023-04-25T00:22:03.214Z,970.16
2023-04-25T00:23:03.588Z,970.16
2023-04-25T00:25:03.718Z,970.08
2023-04-25T00:27:03.862Z,970.16
2023-04-25T00:29:02.949Z,970.08
2023-04-25T00:30:03.849Z,970.08
2023-04-25T00:31:03.902Z,970.08
2023-04-25T00:32:03.578Z,970.19
2023-04-25T00:33:03.619Z,970.13
2023-04-25T00:34:03.102Z,970.16
2023-04-25T00:35:02.978Z,970.13
2023-04-25T00:36:03.887Z,970.22
2023-04-25T00:37:03.820Z,970.10
2023-04-25T00:38:03.290Z,970.16
2023-04-25T00:39:03.795Z,970.19
2023-04-25T00:41:03.542Z,970.19
2023-04-25T00:42:03.097Z,970.07
2023-04-25T00:43:03.021Z,970.01
2023-04-25T00:44:03.605Z,970.10
2023-04-25T00:46:03.143Z,970.13
2023-04-25T00:47:03.355Z,970.13
2023-04-25T00:48:03.322Z,970.07
2023-04-25T00:49:03.852Z,970.01
2023-04-25T00:51:03.899Z,970.15
2023-04-25T00:53:03.955Z,969.98
2023-04-25T00:55:03.442Z,970.01
2023-04-25T00:56:03.013Z,969.98
2023-04-25T00:57:03.528Z,970.01
2023-04-25T00:59:03.030Z,970.04
2023-04-25T01:00:03.042Z,969.99
2023-04-25T01:01:03.662Z,970.04
2023-04-25T01:03:04.024Z,969.91
2023-04-25T01:05:03.252Z,969.96
2023-04-25T01:06:03.270Z,969.82
2023-04-25T01:07:03.430Z,969.85
2023-04-25T01:08:02.990Z,969.82
2023-04-25T01:09:03.850Z,969.85
2023-04-25T01:10:03.446Z,969.88
2023-04-25T01:11:03.063Z,969.85
2023-04-25T01:12:02.921Z,969.91
2023-04-25T01:13:03.315Z,969.90
2023-04-25T01:14:03.894Z,969.93
2023-04-25T01:15:03.758Z,969.88
2023-04-25T01:16:03.780Z,969.93
2023-04-25T01:17:03.558Z,970.01
2023-04-25T01:18:03.084Z,969.79
2023-04-25T01:19:03.089Z,969.87
2023-04-25T01:20:03.656Z,969.82
2023-04-25T01:22:03.767Z,969.84
2023-04-25T01:24:03.680Z,969.98
2023-04-25T01:25:03.833Z,969.84
2023-04-25T01:26:03.230Z,969.93
2023-04-25T01:27:03.884Z,969.97
2023-04-25T01:28:03.811Z,969.81
2023-04-25T01:29:03.371Z,970.03
2023-04-25T01:31:02.930Z,969.81
2023-04-25T01:32:04.043Z,969.84
2023-04-25T01:34:03.571Z,969.97
2023-04-25T01:36:03.054Z,969.72
2023-04-25T01:37:03.793Z,969.84
2023-04-25T01:39:03.203Z,969.84
2023-04-25T01:40:03.148Z,969.75
2023-04-25T01:41:03.764Z,969.72
2023-04-25T01:43:03.697Z,969.78
2023-04-25T01:44:04.886Z,969.78
2023-04-25T01:45:03.747Z,969.72
2023-04-25T01:46:03.844Z,969.86
2023-04-25T01:47:03.559Z,969.64
2023-04-25T01:48:03.045Z,969.81
2023-04-25T01:49:03.603Z,969.75
2023-04-25T01:50:03.369Z,969.72
2023-04-25T01:52:03.592Z,969.92
2023-04-25T01:53:03.464Z,969.81
2023-04-25T01:54:03.485Z,969.72
2023-04-25T01:55:03.909Z,969.64
2023-04-25T01:57:03.046Z,969.86
2023-04-25T01:58:03.606Z,969.69
2023-04-25T02:00:03.652Z,969.78
2023-04-25T02:02:03.828Z,969.61
2023-04-25T02:03:03.582Z,969.75
2023-04-25T02:05:03.194Z,969.75
2023-04-25T02:06:03.210Z,969.69
2023-04-25T02:07:03.695Z,969.69
2023-04-25T02:09:03.821Z,969.66
2023-04-25T02:10:03.641Z,969.80
2023-04-25T02:11:03.119Z,969.66
2023-04-25T02:12:03.067Z,969.63
2023-04-25T02:13:03.681Z,969.74
2023-04-25T02:15:03.740Z,969.86
2023-04-25T02:16:03.748Z,969.71
2023-04-25T02:17:03.872Z,969.74
2023-04-25T02:19:03.078Z,969.66
2023-04-25T02:20:03.654Z,969.74
2023-04-25T02:21:03.629Z,969.80
2023-04-25T02:22:03.131Z,969.65
2023-04-25T02:23:03.640Z,969.74
2023-04-25T02:25:03.114Z,969.74
2023-04-25T02:26:03.637Z,969.68
2023-04-25T02:28:03.613Z,969.74
2023-04-25T02:29:03.495Z,969.68
2023-04-25T02:30:03.545Z,969.68
2023-04-25T02:31:03.434Z,969.80
2023-04-25T02:32:03.408Z,969.68
2023-04-25T02:33:03.459Z,969.74
2023-04-25T02:34:03.811Z,969.79
2023-04-25T02:36:03.909Z,969.82
2023-04-25T02:38:02.965Z,969.71
2023-04-25T02:39:03.611Z,969.68
2023-04-25T02:40:03.650Z,969.74
2023-04-25T02:41:03.075Z,969.68
2023-04-25T02:42:03.536Z,969.74
2023-04-25T02:44:03.795Z,969.68
2023-04-25T02:46:03.916Z,969.68
2023-04-25T02:48:03.198Z,969.80
2023-04-25T02:49:03.250Z,969.77
2023-04-25T02:50:03.300Z,969.63
2023-04-25T02:51:03.844Z,969.71
2023-04-25T02:53:03.360Z,969.68
2023-04-25T02:54:03.801Z,969.68
2023-04-25T02:56:03.280Z,969.74
2023-04-25T02:57:03.802Z,969.57
2023-04-25T02:59:03.818Z,969.74
2023-04-25T03:00:03.306Z,969.60
2023-04-25T03:01:03.355Z,969.54
2023-04-25T03:02:03.335Z,969.63
2023-04-25T03:03:03.808Z,969.77
2023-04-25T03:04:03.202Z,969.46
2023-04-25T03:05:03.774Z,969.63
2023-04-25T03:07:02.959Z,969.54
2023-04-25T03:08:03.573Z,969.62
2023-04-25T03:10:03.206Z,969.65
2023-04-25T03:11:03.712Z,969.48
2023-04-25T03:13:03.579Z,969.54
2023-04-25T03:15:03.257Z,969.62
2023-04-25T03:16:03.156Z,969.54
2023-04-25T03:17:03.793Z,969.68
2023-04-25T03:19:03.636Z,969.54
2023-04-25T03:21:03.317Z,969.54
2023-04-25T03:22:03.790Z,969.43
2023-04-25T03:24:03.244Z,969.42
2023-04-25T03:25:03.784Z,969.57
2023-04-25T03:26:03.768Z,969.42
2023-04-25T03:27:03.656Z,969.45
2023-04-25T03:29:02.917Z,969.54
2023-04-25T03:30:03.342Z,969.54
2023-04-25T03:31:03.443Z,969.59
2023-04-25T03:32:03.093Z,969.57
2023-04-25T03:33:03.590Z,969.57
2023-04-25T03:34:03.292Z,969.51
2023-04-25T03:35:03.386Z,969.71
2023-04-25T03:36:03.816Z,969.54
2023-04-25T03:37:03.739Z,969.48
2023-04-25T03:38:03.748Z,969.54
2023-04-25T03:39:03.424Z,969.57
2023-04-25T03:40:03.875Z,969.51
2023-04-25T03:42:03.311Z,969.56
2023-04-25T03:43:03.912Z,969.68
2023-04-25T03:44:03.924Z,969.56
2023-04-25T03:45:03.332Z,969.71
2023-04-25T03:46:04.011Z,969.59
2023-04-25T03:48:03.594Z,969.62
2023-04-25T03:50:03.726Z,969.62
2023-04-25T03:52:03.852Z,969.59
2023-04-25T03:54:03.744Z,969.54
2023-04-25T03:55:03.645Z,969.59
2023-04-25T03:56:03.127Z,969.59
2023-04-25T03:57:03.787Z,969.56
2023-04-25T03:59:03.857Z,969.68
2023-04-25T04:01:03.812Z,969.82
2023-04-25T04:02:03.578Z,969.79
2023-04-25T04:03:03.180Z,969.68
2023-04-25T04:04:04.482Z,969.74
2023-04-25T04:05:03.822Z,969.68
2023-04-25T04:06:02.964Z,969.85
2023-04-25T04:07:03.413Z,969.74
2023-04-25T04:08:03.837Z,969.82
2023-04-25T04:10:03.019Z,969.85
2023-04-25T04:11:03.674Z,969.91
2023-04-25T04:13:03.657Z,969.80
2023-04-25T04:15:03.360Z,969.85
2023-04-25T04:16:03.017Z,970.10
2023-04-25T04:17:03.062Z,969.88
2023-04-25T04:18:03.698Z,970.01
2023-04-25T04:19:03.437Z,970.07
2023-04-25T04:20:02.999Z,970.10
2023-04-25T04:21:03.566Z,969.88
2023-04-25T04:22:03.591Z,970.10
2023-04-25T04:23:03.611Z,970.07
2023-04-25T04:24:03.056Z,970.13
2023-04-25T04:25:04.149Z,969.99
2023-04-25T04:27:03.135Z,970.04
2023-04-25T04:28:03.780Z,970.13
2023-04-25T04:30:03.781Z,970.10
2023-04-25T04:31:03.106Z,969.99
2023-04-25T04:32:03.665Z,970.04
2023-04-25T04:34:03.641Z,970.13
2023-04-25T04:36:03.061Z,970.07
2023-04-25T04:37:03.708Z,970.13
2023-04-25T04:39:03.902Z,970.21
2023-04-25T04:41:03.477Z,970.18
2023-04-25T04:42:03.165Z,970.15
2023-04-25T04:43:03.589Z,970.18
2023-04-25T04:45:03.916Z,970.13
2023-04-25T04:47:04.032Z,970.01
2023-04-25T04:48:03.884Z,969.98
2023-04-25T04:49:03.911Z,970.07
2023-04-25T04:50:03.518Z,970.21
2023-04-25T04:51:03.368Z,970.18
2023-04-25T04:52:03.784Z,970.24
2023-04-25T04:53:03.266Z,970.13
2023-04-25T04:54:03.232Z,970.18
2023-04-25T04:55:03.193Z,970.13
2023-04-25T04:56:03.144Z,970.27
2023-04-25T04:57:03.096Z,970.07
2023-04-25T04:58:03.013Z,970.12
2023-04-25T04:59:03.401Z,970.32
2023-04-25T05:01:03.736Z,970.24
2023-04-25T05:02:03.700Z,970.35
2023-04-25T05:03:03.550Z,970.18
2023-04-25T05:05:03.380Z,970.29
2023-04-25T05:06:03.968Z,970.32
2023-04-25T05:08:03.900Z,970.35
2023-04-25T05:09:03.883Z,970.24
2023-04-25T05:11:03.327Z,970.42
2023-04-25T05:12:03.318Z,970.39
2023-04-25T05:13:03.955Z,970.42
2023-04-25T05:15:03.022Z,970.42
2023-04-25T05:16:03.537Z,970.50
2023-04-25T05:17:03.422Z,970.50
2023-04-25T05:18:03.998Z,970.50
2023-04-25T05:20:02.991Z,970.53
2023-04-25T05:21:03.503Z,970.47
2023-04-25T05:23:03.016Z,970.47
2023-04-25T05:24:03.012Z,970.47
2023-04-25T05:25:03.103Z,970.56
2023-04-25T05:26:03.496Z,970.61
2023-04-25T05:28:03.663Z,970.64
2023-04-25T05:30:03.300Z,970.56
2023-04-25T05:31:03.688Z,970.64
2023-04-25T05:33:03.779Z,970.70
2023-04-25T05:34:03.429Z,970.58
2023-04-25T05:35:04.077Z,970.61
2023-04-25T05:37:03.689Z,970.55
2023-04-25T05:38:03.157Z,970.58
2023-04-25T05:39:03.055Z,970.55
2023-04-25T05:40:03.094Z,970.52
2023-04-25T05:41:03.525Z,970.51
2023-04-25T05:42:03.077Z,970.56
2023-04-25T05:43:03.464Z,970.47
2023-04-25T05:44:03.162Z,970.43
2023-04-25T05:45:03.982Z,970.56
2023-04-25T05:46:03.510Z,970.42
2023-04-25T05:47:03.066Z,970.43
2023-04-25T05:48:03.727Z,970.42
2023-04-25T05:49:03.717Z,970.49
2023-04-25T05:51:03.331Z,970.44
2023-04-25T05:52:03.472Z,970.51
2023-04-25T05:53:03.040Z,970.42
2023-04-25T05:54:03.509Z,970.64
2023-04-25T05:55:03.478Z,970.57
2023-04-25T05:56:03.671Z,970.82
2023-04-25T05:57:03.518Z,970.82
2023-04-25T05:59:03.892Z,970.87
2023-04-25T06:00:03.832Z,971.02
2023-04-25T06:01:03.294Z,970.91
2023-04-25T06:02:03.744Z,971.11
2023-04-25T06:03:03.834Z,971.11
2023-04-25T06:04:04.529Z,971.08
2023-04-25T06:06:03.737Z,971.23
2023-04-25T06:08:03.774Z,971.24
2023-04-25T06:10:03.333Z,971.30
2023-04-25T06:11:03.057Z,971.22
2023-04-25T06:12:03.678Z,971.33
2023-04-25T06:14:03.726Z,971.43
2023-04-25T06:15:16.823Z,971.51
2023-04-25T06:16:03.408Z,971.43
2023-04-25T06:17:03.220Z,971.49
2023-04-25T06:18:03.781Z,971.49
2023-04-25T06:19:03.832Z,971.43
2023-04-25T06:20:07.010Z,971.46
2023-04-25T06:22:03.882Z,971.55
2023-04-25T06:23:03.872Z,971.58
2023-04-25T06:24:03.247Z,971.66
2023-04-25T06:25:03.231Z,971.52
2023-04-25T06:26:03.779Z,971.50
2023-04-25T06:27:03.675Z,971.44
2023-04-25T06:28:03.818Z,971.46
2023-04-25T06:29:03.292Z,971.43
2023-04-25T06:30:03.944Z,971.51
2023-04-25T06:32:03.509Z,971.58
2023-04-25T06:33:03.278Z,971.43
2023-04-25T06:34:03.217Z,971.45
2023-04-25T06:35:03.762Z,971.41
2023-04-25T06:37:03.732Z,971.44
2023-04-25T06:39:02.937Z,971.48
2023-04-25T06:40:03.620Z,971.38
2023-04-25T06:42:03.321Z,971.53
2023-04-25T06:43:03.282Z,971.58
2023-04-25T06:44:03.275Z,971.46
2023-04-25T06:45:03.719Z,971.63
2023-04-25T06:46:03.833Z,971.80
2023-04-25T06:48:03.398Z,971.88
2023-04-25T06:49:03.175Z,971.91
2023-04-25T06:50:03.752Z,971.96
2023-04-25T06:52:03.652Z,972.10
2023-04-25T06:54:03.910Z,972.01
2023-04-25T06:55:03.828Z,972.20
2023-04-25T06:56:03.378Z,972.23
2023-04-25T06:57:02.978Z,972.16
2023-04-25T06:58:03.435Z,972.16
2023-04-25T06:59:03.332Z,972.24
2023-04-25T07:00:03.071Z,972.18
2023-04-25T07:01:03.933Z,972.29
2023-04-25T07:02:03.459Z,972.20
2023-04-25T07:03:03.463Z,972.35
2023-04-25T07:04:04.507Z,972.21
2023-04-25T07:05:03.982Z,972.32
2023-04-25T07:06:03.992Z,972.33
2023-04-25T07:07:03.516Z,972.30
2023-04-25T07:08:03.910Z,972.39
2023-04-25T07:10:03.096Z,972.59
2023-04-25T07:11:03.686Z,972.57
2023-04-25T07:12:03.494Z,972.63
2023-04-25T07:13:03.124Z,972.66
2023-04-25T07:14:03.192Z,972.67
2023-04-25T07:15:03.131Z,972.62
2023-04-25T07:16:03.051Z,972.65
2023-04-25T07:17:03.962Z,972.69
2023-04-25T07:19:03.749Z,972.72
2023-04-25T07:20:03.518Z,972.72
2023-04-25T07:21:03.045Z,972.81
2023-04-25T07:22:03.777Z,972.67
2023-04-25T07:23:03.724Z,972.87
2023-04-25T07:24:03.177Z,972.62
2023-04-25T07:25:03.820Z,972.82
2023-04-25T07:26:03.677Z,972.68
2023-04-25T07:27:03.856Z,972.68
2023-04-25T07:28:03.400Z,972.87
2023-04-25T07:30:03.233Z,972.64
2023-04-25T07:31:03.240Z,972.61
2023-04-25T07:32:03.990Z,972.64
2023-04-25T07:34:03.172Z,972.66
2023-04-25T07:35:04.514Z,972.69
2023-04-25T07:36:03.655Z,972.66
2023-04-25T07:37:03.701Z,972.61
2023-04-25T07:38:03.756Z,972.61
2023-04-25T07:40:03.828Z,972.67
2023-04-25T07:42:03.926Z,972.59
2023-04-25T07:44:03.303Z,972.54
2023-04-25T07:45:03.920Z,972.66
2023-04-25T07:47:04.814Z,972.63
2023-04-25T07:48:03.922Z,972.77
2023-04-25T07:49:03.523Z,972.63
2023-04-25T07:50:03.054Z,972.63
2023-04-25T07:51:03.706Z,972.64
2023-04-25T07:53:03.116Z,972.55
2023-04-25T07:54:03.740Z,972.59
2023-04-25T07:56:03.487Z,972.73
2023-04-25T07:57:03.499Z,972.70
2023-04-25T07:58:03.070Z,972.59
2023-04-25T07:59:03.462Z,972.68
2023-04-25T08:01:02.954Z,972.60
2023-04-25T08:02:03.624Z,972.74
2023-04-25T08:03:03.998Z,972.57
2023-04-25T08:04:03.931Z,972.69
2023-04-25T08:05:03.884Z,972.72
2023-04-25T08:06:08.225Z,972.78
2023-04-25T08:07:03.775Z,972.61
2023-04-25T08:08:03.828Z,972.64
2023-04-25T08:10:02.953Z,972.64
2023-04-25T08:11:02.972Z,972.62
2023-04-25T08:12:03.554Z,972.59
2023-04-25T08:14:03.465Z,972.59
2023-04-25T08:16:03.708Z,972.77
2023-04-25T08:17:03.362Z,972.74
2023-04-25T08:18:03.890Z,972.71
2023-04-25T08:20:03.403Z,972.78
2023-04-25T08:21:03.981Z,972.84
2023-04-25T08:23:03.912Z,972.87
2023-04-25T08:25:03.252Z,972.68
2023-04-25T08:26:03.753Z,972.68
2023-04-25T08:28:03.846Z,972.71
2023-04-25T08:30:03.863Z,972.80
2023-04-25T08:32:03.512Z,972.78
2023-04-25T08:33:03.465Z,972.92
2023-04-25T08:34:03.215Z,972.87
2023-04-25T08:35:03.908Z,972.81
2023-04-25T08:37:03.033Z,972.90
2023-04-25T08:38:03.558Z,972.84
2023-04-25T08:39:03.634Z,972.87
2023-04-25T08:40:03.185Z,972.81
2023-04-25T08:41:03.803Z,972.84
2023-04-25T08:43:03.363Z,972.82
2023-04-25T08:44:03.839Z,972.85
2023-04-25T08:45:07.027Z,972.87
2023-04-25T08:46:03.666Z,972.87
2023-04-25T08:47:03.121Z,972.93
2023-04-25T08:48:03.739Z,972.88
2023-04-25T08:49:03.202Z,972.82
2023-04-25T08:50:03.838Z,972.85
2023-04-25T08:52:03.947Z,972.96
2023-04-25T08:54:36.880Z,972.71
2023-04-25T08:55:03.308Z,972.77
2023-04-25T08:56:03.924Z,972.83
2023-04-25T08:58:04.900Z,972.77
2023-04-25T08:59:03.836Z,972.83
2023-04-25T09:00:03.290Z,972.97
2023-04-25T09:01:03.969Z,973.00
2023-04-25T09:03:04.396Z,973.00
2023-04-25T09:05:03.464Z,972.97
2023-04-25T09:06:03.445Z,972.94
2023-04-25T09:07:03.874Z,973.00
2023-04-25T09:08:03.648Z,972.89
2023-04-25T09:09:03.532Z,973.08
2023-04-25T09:11:03.275Z,973.03
2023-04-25T09:12:03.272Z,973.00
2023-04-25T09:13:03.761Z,972.99
2023-04-25T09:15:03.256Z,973.22
2023-04-25T09:16:03.942Z,973.02
2023-04-25T09:17:04.037Z,973.05
2023-04-25T09:18:03.922Z,972.96
2023-04-25T09:19:03.158Z,973.02
2023-04-25T09:20:03.736Z,973.08
2023-04-25T09:21:14.082Z,973.02
2023-04-25T09:22:03.585Z,973.05
2023-04-25T09:23:03.583Z,973.13
2023-04-25T09:24:03.689Z,973.05
2023-04-25T09:25:03.733Z,973.05
2023-04-25T09:26:03.127Z,973.05
2023-04-25T09:27:03.733Z,973.17
2023-04-25T09:29:03.762Z,973.20
2023-04-25T09:30:03.755Z,973.14
2023-04-25T09:31:03.295Z,973.23
2023-04-25T09:32:03.099Z,973.20
2023-04-25T09:33:03.859Z,973.35
2023-04-25T09:34:04.293Z,973.32
2023-04-25T09:35:03.032Z,973.15
2023-04-25T09:36:03.698Z,973.27
2023-04-25T09:38:03.110Z,973.21
2023-04-25T09:39:03.052Z,973.30
2023-04-25T09:40:04.017Z,973.24
2023-04-25T09:42:03.423Z,973.33
2023-04-25T09:43:03.120Z,973.28
2023-04-25T09:44:04.213Z,973.36
2023-04-25T09:45:03.322Z,973.22
2023-04-25T09:46:03.433Z,973.25
2023-04-25T09:47:03.368Z,973.34
2023-04-25T09:48:03.066Z,973.34
2023-04-25T09:49:03.672Z,973.14
2023-04-25T09:50:03.503Z,973.11
2023-04-25T09:51:03.066Z,973.14
2023-04-25T09:52:03.523Z,973.22
2023-04-25T09:54:03.329Z,973.22
2023-04-25T09:55:03.361Z,973.31
2023-04-25T09:56:03.718Z,973.25
2023-04-25T09:57:03.909Z,973.16
2023-04-25T09:58:03.565Z,973.14
2023-04-25T09:59:03.571Z,973.13
2023-04-25T10:00:03.465Z,973.11
2023-04-25T10:01:04.018Z,973.11
2023-04-25T10:02:03.738Z,973.16
2023-04-25T10:03:03.606Z,973.22
2023-04-25T10:04:04.434Z,973.11
2023-04-25T10:05:03.799Z,973.22
2023-04-25T10:06:03.369Z,973.28
2023-04-25T10:07:03.637Z,973.28
2023-04-25T10:08:03.252Z,973.28
2023-04-25T10:09:03.266Z,973.25
2023-04-25T10:10:03.977Z,973.28
2023-04-25T10:12:03.484Z,973.28
2023-04-25T10:13:03.659Z,973.17
2023-04-25T10:14:03.190Z,973.20
2023-04-25T10:15:03.979Z,973.23
2023-04-25T10:16:03.708Z,973.17
2023-04-25T10:17:03.342Z,973.28
2023-04-25T10:18:03.928Z,973.29
2023-04-25T10:19:03.753Z,973.40
2023-04-25T10:20:03.303Z,973.23
2023-04-25T10:21:03.905Z,973.23
2023-04-25T10:23:02.980Z,973.23
2023-04-25T10:24:03.363Z,973.20
2023-04-25T10:25:03.487Z,973.29
2023-04-25T10:26:03.570Z,973.20
2023-04-25T10:27:03.516Z,973.26
2023-04-25T10:28:03.170Z,973.26
2023-04-25T10:29:03.050Z,973.09
2023-04-25T10:30:03.559Z,973.15
2023-04-25T10:32:03.854Z,973.09
2023-04-25T10:33:03.875Z,973.18
2023-04-25T10:34:03.476Z,972.98
2023-04-25T10:35:03.552Z,973.12
2023-04-25T10:36:03.771Z,973.07
2023-04-25T10:38:03.803Z,973.01
2023-04-25T10:40:03.116Z,973.15
2023-04-25T10:41:03.146Z,973.18
2023-04-25T10:42:03.636Z,973.07
2023-04-25T10:44:03.927Z,973.06
2023-04-25T10:46:02.975Z,973.06
2023-04-25T10:47:03.477Z,973.06
2023-04-25T10:48:03.175Z,973.11
2023-04-25T10:49:03.785Z,973.02
2023-04-25T10:50:03.675Z,973.02
2023-04-25T10:51:03.202Z,972.99
2023-04-25T10:52:03.178Z,972.93
2023-04-25T10:53:03.597Z,973.04
2023-04-25T10:54:03.358Z,973.01
2023-04-25T10:55:03.871Z,973.03
2023-04-25T10:57:03.568Z,973.12
2023-04-25T10:58:03.685Z,973.09
2023-04-25T11:00:03.803Z,973.31
2023-04-25T11:02:04.286Z,973.32
2023-04-25T11:03:04.223Z,973.35
2023-04-25T11:05:03.746Z,973.44
2023-04-25T11:07:07.283Z,973.45
2023-04-25T11:08:08.705Z,973.48
2023-04-25T11:09:03.685Z,973.52
2023-04-25T11:10:03.725Z,973.54
2023-04-25T11:12:02.998Z,973.47
2023-04-25T11:13:03.739Z,973.50
2023-04-25T11:15:03.915Z,973.51
2023-04-25T11:16:13.600Z,973.51
2023-04-25T11:17:03.285Z,973.43
2023-04-25T11:18:03.772Z,973.37
2023-04-25T11:20:03.459Z,973.54
2023-04-25T11:21:03.445Z,973.56
2023-04-25T11:22:03.853Z,973.48
2023-04-25T11:24:03.362Z,973.45
2023-04-25T11:25:03.896Z,973.45
2023-04-25T11:26:03.495Z,973.31
2023-04-25T11:27:03.672Z,973.42
2023-04-25T11:28:03.806Z,973.39
2023-04-25T11:29:03.341Z,973.42
2023-04-25T11:30:03.943Z,973.39
2023-04-25T11:31:03.890Z,973.44
2023-04-25T11:32:03.771Z,973.42
2023-04-25T11:33:03.933Z,973.33
2023-04-25T11:35:03.817Z,973.46
2023-04-25T11:37:03.667Z,973.40
2023-04-25T11:38:03.115Z,973.43
2023-04-25T11:39:03.635Z,973.42
2023-04-25T11:40:03.763Z,973.37
2023-04-25T11:41:03.189Z,973.45
2023-04-25T11:42:06.836Z,973.45
2023-04-25T11:43:03.447Z,973.47
2023-04-25T11:44:03.059Z,973.50
2023-04-25T11:45:03.906Z,973.35
2023-04-25T11:46:03.720Z,973.46
2023-04-25T11:47:03.085Z,973.46
2023-04-25T11:48:03.306Z,973.34
2023-04-25T11:49:03.074Z,973.40
2023-04-25T11:50:03.487Z,973.42
2023-04-25T11:51:03.200Z,973.45
2023-04-25T11:52:03.084Z,973.55
2023-04-25T11:53:03.064Z,973.50
2023-04-25T11:54:03.639Z,973.54
2023-04-25T11:56:03.147Z,973.63
2023-04-25T11:57:03.849Z,973.63
2023-04-25T11:59:03.058Z,973.74
2023-04-25T12:00:03.735Z,973.75
2023-04-25T12:02:03.369Z,973.81
2023-04-25T12:03:04.370Z,973.78
2023-04-25T12:04:04.841Z,973.92
2023-04-25T12:05:31.811Z,973.90
2023-04-25T12:06:04.159Z,974.01
2023-04-25T12:08:03.015Z,973.99
2023-04-25T12:09:03.766Z,973.93
2023-04-25T12:11:03.865Z,974.04
2023-04-25T12:12:04.420Z,974.13
2023-04-25T12:14:02.974Z,974.10
2023-04-25T12:15:03.841Z,974.13
2023-04-25T12:16:03.932Z,974.11
2023-04-25T12:17:03.560Z,974.25
2023-04-25T12:18:03.691Z,974.39
2023-04-25T12:19:03.700Z,974.36
2023-04-25T12:20:03.183Z,974.31
2023-04-25T12:21:03.266Z,974.23
2023-04-25T12:22:03.097Z,974.25
2023-04-25T12:23:03.715Z,974.17
2023-04-25T12:25:03.251Z,974.20
2023-04-25T12:26:03.329Z,974.17
2023-04-25T12:27:04.100Z,974.17
2023-04-25T12:28:03.348Z,974.11
2023-04-25T12:29:02.991Z,974.16
2023-04-25T12:30:03.208Z,974.21
2023-04-25T12:31:03.217Z,974.19
2023-04-25T12:32:03.302Z,974.13
2023-04-25T12:33:03.842Z,973.95
2023-04-25T12:35:03.142Z,974.06
2023-04-25T12:36:06.354Z,974.06
2023-04-25T12:37:03.355Z,974.05
2023-04-25T12:38:04.007Z,973.88
2023-04-25T12:39:03.867Z,973.93
2023-04-25T12:40:03.668Z,974.01
2023-04-25T12:41:03.377Z,973.90
2023-04-25T12:42:03.746Z,974.04
2023-04-25T12:43:03.588Z,974.20
2023-04-25T12:44:03.450Z,974.12
2023-04-25T12:45:03.099Z,973.83
2023-04-25T12:46:03.647Z,974.02
2023-04-25T12:48:04.646Z,974.02
2023-04-25T12:49:19.283Z,974.13
2023-04-25T12:51:03.313Z,974.12
2023-04-25T12:52:02.909Z,974.20
2023-04-25T12:53:03.750Z,974.10
2023-04-25T12:55:03.174Z,974.21
2023-04-25T12:56:04.133Z,974.23
2023-04-25T12:58:03.379Z,974.29
2023-04-25T12:59:03.106Z,974.37
2023-04-25T13:00:03.794Z,974.34
2023-04-25T13:01:03.537Z,974.34
2023-04-25T13:02:03.704Z,974.43
2023-04-25T13:03:04.145Z,974.48
2023-04-25T13:04:04.145Z,974.40
2023-04-25T13:05:03.764Z,974.52
2023-04-25T13:07:03.291Z,974.78
2023-04-25T13:08:03.480Z,974.70
2023-04-25T13:09:03.863Z,974.73
2023-04-25T13:10:03.981Z,974.78
2023-04-25T13:12:02.974Z,974.73
2023-04-25T13:13:03.479Z,974.95
2023-04-25T13:14:03.939Z,974.91
2023-04-25T13:15:03.611Z,974.82
2023-04-25T13:16:03.308Z,974.94
2023-04-25T13:17:03.985Z,975.16
2023-04-25T13:19:03.028Z,974.94
2023-04-25T13:20:03.070Z,974.96
2023-04-25T13:21:03.619Z,974.99
2023-04-25T13:22:03.735Z,974.94
2023-04-25T13:23:03.879Z,975.13
2023-04-25T13:24:03.925Z,975.13
2023-04-25T13:25:03.396Z,974.98
2023-04-25T13:26:03.920Z,975.18
2023-04-25T13:28:03.122Z,975.15
2023-04-25T13:29:03.610Z,975.09
2023-04-25T13:30:03.803Z,975.17
2023-04-25T13:31:03.716Z,975.14
2023-04-25T13:33:03.162Z,975.17
2023-04-25T13:34:03.060Z,974.96
2023-04-25T13:35:08.553Z,975.02
2023-04-25T13:36:03.415Z,975.13
2023-04-25T13:37:03.467Z,975.24
2023-04-25T13:38:03.072Z,975.13
2023-04-25T13:39:03.778Z,975.13
2023-04-25T13:41:03.863Z,975.10
2023-04-25T13:43:03.519Z,975.33
2023-04-25T13:44:03.094Z,975.30
2023-04-25T13:45:03.641Z,975.38
2023-04-25T13:46:03.540Z,975.28
2023-04-25T13:47:03.924Z,975.47
2023-04-25T13:48:03.995Z,975.53
2023-04-25T13:49:13.084Z,975.53
2023-04-25T13:50:03.737Z,975.48
2023-04-25T13:51:03.445Z,975.62
2023-04-25T13:53:03.353Z,975.63
2023-04-25T13:54:02.968Z,975.80
2023-04-25T13:55:03.970Z,975.72
2023-04-25T13:57:03.000Z,975.78
2023-04-25T13:58:03.846Z,975.81
2023-04-25T13:59:03.904Z,975.76
2023-04-25T14:00:03.951Z,975.79
2023-04-25T14:01:03.450Z,975.82
2023-04-25T14:02:03.702Z,975.79
2023-04-25T14:03:03.721Z,975.82
2023-04-25T14:04:03.850Z,975.90
2023-04-25T14:06:03.591Z,975.79
2023-04-25T14:07:03.694Z,975.85
2023-04-25T14:08:03.348Z,975.85
2023-04-25T14:10:03.359Z,975.91
2023-04-25T14:11:03.840Z,975.88
2023-04-25T14:12:03.899Z,975.91
2023-04-25T14:14:03.039Z,975.91
2023-04-25T14:15:03.312Z,976.05
2023-04-25T14:16:02.977Z,975.85
2023-04-25T14:17:03.714Z,975.83
2023-04-25T14:18:04.025Z,976.08
2023-04-25T14:20:03.747Z,976.08
2023-04-25T14:21:03.860Z,975.97
2023-04-25T14:22:03.783Z,976.00
2023-04-25T14:23:03.468Z,976.14
2023-04-25T14:25:03.608Z,976.00
2023-04-25T14:26:03.580Z,976.00
2023-04-25T14:27:03.747Z,976.11
2023-04-25T14:28:03.715Z,976.11
2023-04-25T14:29:03.754Z,976.25
2023-04-25T14:30:03.349Z,976.05
2023-04-25T14:31:03.864Z,976.08
2023-04-25T14:33:03.099Z,976.08
2023-04-25T14:34:03.889Z,976.28
2023-04-25T14:35:03.931Z,976.25
2023-04-25T14:36:03.406Z,976.14
2023-04-25T14:38:03.667Z,976.20
2023-04-25T14:39:03.477Z,976.20
2023-04-25T14:40:03.115Z,976.34
2023-04-25T14:41:03.662Z,976.29
2023-04-25T14:42:03.555Z,976.31
2023-04-25T14:43:03.136Z,976.17
2023-04-25T14:44:03.866Z,976.32
2023-04-25T14:45:03.885Z,976.46
2023-04-25T14:46:03.428Z,976.40
2023-04-25T14:47:03.110Z,976.43
2023-04-25T14:48:04.333Z,976.52
2023-04-25T14:50:03.518Z,976.46
2023-04-25T14:51:03.121Z,976.55
2023-04-25T14:52:03.597Z,976.55
2023-04-25T14:54:03.685Z,976.47
2023-04-25T14:55:03.670Z,976.67
2023-04-25T14:56:03.847Z,976.58
2023-04-25T14:57:03.588Z,976.75
2023-04-25T14:58:03.275Z,976.70
2023-04-25T14:59:03.807Z,976.62
2023-04-25T15:01:03.165Z,976.70
2023-04-25T15:02:04.280Z,976.62
2023-04-25T15:03:04.049Z,976.73
2023-04-25T15:04:03.985Z,976.65
2023-04-25T15:05:03.954Z,976.53
2023-04-25T15:06:03.525Z,976.67
2023-04-25T15:07:03.055Z,976.75
2023-04-25T15:08:03.609Z,976.70
2023-04-25T15:09:03.411Z,976.73
2023-04-25T15:10:03.425Z,976.84
2023-04-25T15:11:03.301Z,976.81
2023-04-25T15:12:03.851Z,976.90
2023-04-25T15:14:03.063Z,976.78
2023-04-25T15:15:03.029Z,976.81
2023-04-25T15:16:03.070Z,976.90
2023-04-25T15:17:03.802Z,976.93
2023-04-25T15:18:04.003Z,976.93
2023-04-25T15:20:02.946Z,976.95
2023-04-25T15:21:03.144Z,976.98
2023-04-25T15:22:03.561Z,977.07
2023-04-25T15:23:03.881Z,977.04